Fort Washington, Maryland
Current Conditions -  °F | °C
As of 1:52 AM on Friday 31 Oct 2014 (Local Time) from KDCA Reporting Station
Few Clouds Few Clouds  
Wind Chill: 49°   Ceiling: Unl
Heat Index: 49°   Visibility: 10mi
Dew Point: 36°   Wind: 3mph
Humidity: 61%   Direction: 340°NNW
Pressure: 30.04"   Gusts: NA
Location:  38.74°N, 77°W
Report Text: KDCA 310552Z 34003KT 10SM FEW055 09/02 A3004 RMK AO2 SLP170 T00940022 10139 20089 58007
Loading
Personal Weather Stations






























Interactive Weather Map
Tropical Storm Tracking
New forecast layout! Learn more

10-Day Weather Forecast

Advertisements
Track Severe Weather on mobile